createdAt,value
2022-08-18T00:01:30.976Z,13.52
2022-08-18T00:04:03.653Z,13.05
2022-08-18T00:06:41.944Z,13.07
2022-08-18T00:09:11.168Z,13.27
2022-08-18T00:11:44.145Z,13.02
2022-08-18T00:14:21.583Z,13.88
2022-08-18T00:16:54.101Z,12.40
2022-08-18T00:19:45.583Z,13.25
2022-08-18T00:22:16.075Z,13.23
2022-08-18T00:24:54.994Z,12.60
2022-08-18T00:27:29.515Z,12.18
2022-08-18T00:30:09.830Z,11.82
2022-08-18T00:32:47.653Z,10.00
2022-08-18T00:35:33.656Z,11.23
2022-08-18T00:38:06.304Z,9.48
2022-08-18T00:40:42.739Z,9.82
2022-08-18T00:43:23.044Z,8.55
2022-08-18T00:45:49.965Z,8.45
2022-08-18T00:48:17.322Z,9.20
2022-08-18T00:50:58.099Z,7.70
2022-08-18T00:53:53.644Z,8.43
2022-08-18T00:56:50.399Z,8.50
2022-08-18T01:00:13.097Z,7.38
2022-08-18T01:02:55.790Z,7.03
2022-08-18T01:05:43.463Z,7.07
2022-08-18T01:08:16.522Z,7.47
2022-08-18T01:10:46.343Z,7.07
2022-08-18T01:13:13.259Z,6.93
2022-08-18T01:15:40.448Z,7.28
2022-08-18T01:18:33.508Z,6.57
2022-08-18T01:21:24.463Z,5.90
2022-08-18T01:23:55.897Z,6.45
2022-08-18T01:26:27.626Z,6.75
2022-08-18T01:29:06.147Z,6.57
2022-08-18T01:31:56.246Z,6.00
2022-08-18T01:34:27.495Z,5.72
2022-08-18T01:36:58.477Z,6.07
2022-08-18T01:41:24.475Z,5.50
2022-08-18T01:42:17.409Z,6.22
2022-08-18T01:44:51.458Z,6.63
2022-08-18T01:49:49.281Z,5.85
2022-08-18T01:52:21.978Z,5.78
2022-08-18T01:54:51.583Z,5.53
2022-08-18T01:57:22.106Z,6.13
2022-08-18T01:59:48.872Z,5.85
2022-08-18T02:02:27.835Z,6.00
2022-08-18T02:05:05.362Z,6.35
2022-08-18T02:07:36.490Z,5.15
2022-08-18T02:10:11.784Z,5.40
2022-08-18T02:12:41.917Z,5.95
2022-08-18T02:15:10.634Z,6.20
2022-08-18T02:17:45.870Z,5.50
2022-08-18T02:20:19.277Z,5.35
2022-08-18T02:22:48.310Z,4.70
2022-08-18T02:25:18.157Z,5.45
2022-08-18T02:27:46.089Z,5.53
2022-08-18T02:30:18.577Z,4.60
2022-08-18T02:32:49.439Z,5.65
2022-08-18T02:35:16.948Z,5.70
2022-08-18T02:37:48.094Z,5.38
2022-08-18T02:40:17.818Z,5.07
2022-08-18T02:42:47.566Z,5.38
2022-08-18T02:45:15.237Z,5.20
2022-08-18T02:47:53.416Z,4.95
2022-08-18T02:50:20.948Z,6.10
2022-08-18T02:52:48.966Z,5.25
2022-08-18T02:55:16.384Z,6.32
2022-08-18T02:57:49.156Z,5.55
2022-08-18T03:00:19.292Z,5.70
2022-08-18T03:02:54.519Z,5.85
2022-08-18T03:05:21.233Z,5.15
2022-08-18T03:07:48.259Z,6.78
2022-08-18T03:10:31.508Z,6.07
2022-08-18T03:12:59.206Z,6.40
2022-08-18T03:15:26.534Z,5.78
2022-08-18T03:17:54.069Z,5.70
2022-08-18T03:20:30.240Z,6.38
2022-08-18T03:22:58.458Z,6.07
2022-08-18T03:25:26.384Z,6.22
2022-08-18T03:27:53.253Z,6.80
2022-08-18T03:30:20.072Z,6.60
2022-08-18T03:32:56.029Z,6.80
2022-08-18T03:35:22.681Z,6.95
2022-08-18T03:37:49.511Z,7.78
2022-08-18T03:40:16.460Z,8.32
2022-08-18T03:42:43.483Z,8.38
2022-08-18T03:45:13.208Z,9.63
2022-08-18T03:47:45.950Z,8.45
2022-08-18T03:50:14.158Z,9.15
2022-08-18T03:52:41.595Z,9.93
2022-08-18T03:55:09.496Z,9.00
2022-08-18T03:57:39.078Z,9.32
2022-08-18T04:00:09.721Z,9.10
2022-08-18T04:02:36.555Z,9.85
2022-08-18T04:05:05.348Z,9.38
2022-08-18T04:07:32.852Z,10.23
2022-08-18T04:09:59.677Z,9.95
2022-08-18T04:12:26.773Z,11.80
2022-08-18T04:14:53.558Z,11.15
2022-08-18T04:17:25.345Z,11.30
2022-08-18T04:19:56.920Z,11.52
2022-08-18T04:22:34.173Z,10.63
2022-08-18T04:25:01.491Z,10.07
2022-08-18T04:27:29.985Z,11.07
2022-08-18T04:29:57.102Z,9.95
2022-08-18T04:32:29.813Z,10.13
2022-08-18T04:34:57.059Z,10.43
2022-08-18T04:37:24.828Z,10.85
2022-08-18T04:39:54.754Z,10.60
2022-08-18T04:42:21.579Z,10.20
2022-08-18T04:44:50.275Z,11.55
2022-08-18T04:47:17.241Z,10.38
2022-08-18T04:49:44.652Z,11.40
2022-08-18T04:52:39.925Z,10.30
2022-08-18T04:55:11.147Z,10.82
2022-08-18T04:57:42.631Z,10.90
2022-08-18T05:00:12.588Z,10.63
2022-08-18T05:02:40.322Z,9.75
2022-08-18T05:05:08.361Z,10.98
2022-08-18T05:07:35.155Z,11.45
2022-08-18T05:10:02.561Z,11.15
2022-08-18T05:12:29.591Z,9.98
2022-08-18T05:14:59.292Z,10.57
2022-08-18T05:17:30.293Z,10.50
2022-08-18T05:33:29.727Z,9.48
2022-08-18T05:36:12.396Z,10.65
2022-08-18T05:39:24.063Z,9.80
2022-08-18T05:42:21.512Z,11.27
2022-08-18T05:44:54.689Z,11.00
2022-08-18T05:47:34.009Z,11.05
2022-08-18T05:50:19.613Z,10.23
2022-08-18T05:53:05.597Z,12.10
2022-08-18T05:56:25.517Z,9.07
2022-08-18T05:58:57.470Z,10.57
2022-08-18T06:01:34.996Z,10.35
2022-08-18T06:04:07.061Z,9.70
2022-08-18T06:06:47.709Z,9.95
2022-08-18T06:09:41.533Z,9.60
2022-08-18T06:12:37.365Z,10.02
2022-08-18T06:19:00.521Z,9.80
2022-08-18T06:24:50.528Z,9.45
2022-08-18T06:27:41.740Z,9.40
2022-08-18T06:30:36.010Z,8.63
2022-08-18T06:33:14.923Z,8.85
2022-08-18T06:36:14.363Z,9.70
2022-08-18T06:39:39.637Z,9.55
2022-08-18T06:45:12.961Z,8.88
2022-08-18T06:48:03.285Z,9.88
2022-08-18T06:56:41.182Z,9.80
2022-08-18T06:59:27.107Z,9.70
2022-08-18T07:02:26.941Z,9.55
2022-08-18T07:05:28.794Z,9.75
2022-08-18T07:08:32.288Z,10.13
2022-08-18T07:11:28.452Z,10.10
2022-08-18T07:14:17.064Z,9.52
2022-08-18T07:16:58.485Z,10.43
2022-08-18T07:19:32.032Z,9.57
2022-08-18T07:22:16.991Z,10.15
2022-08-18T07:24:49.347Z,9.45
2022-08-18T07:27:41.541Z,9.52
2022-08-18T07:30:31.526Z,9.52
2022-08-18T07:33:23.019Z,8.85
2022-08-18T07:36:09.287Z,9.30
2022-08-18T07:38:57.633Z,9.30
2022-08-18T07:42:37.353Z,8.90
2022-08-18T07:45:45.686Z,9.25
2022-08-18T07:48:40.631Z,9.57
2022-08-18T07:51:24.144Z,9.23
2022-08-18T07:54:49.933Z,9.05
2022-08-18T07:57:42.434Z,9.27
2022-08-18T08:00:57.546Z,9.40
2022-08-18T08:03:53.806Z,9.05
2022-08-18T08:07:20.686Z,8.82
2022-08-18T08:10:28.556Z,9.25
2022-08-18T08:13:10.188Z,8.93
2022-08-18T08:16:09.307Z,8.70
2022-08-18T08:18:41.803Z,9.82
2022-08-18T08:21:19.895Z,8.65
2022-08-18T08:24:11.859Z,9.35
2022-08-18T08:27:23.523Z,10.02
2022-08-18T08:30:12.487Z,8.90
2022-08-18T08:33:30.589Z,10.88
2022-08-18T08:36:30.390Z,10.02
2022-08-18T08:39:26.122Z,10.23
2022-08-18T08:42:30.871Z,10.07
2022-08-18T08:45:11.844Z,10.35
2022-08-18T08:48:09.932Z,10.75
2022-08-18T08:50:57.955Z,9.23
2022-08-18T08:53:46.942Z,10.05
2022-08-18T08:56:20.692Z,9.85
2022-08-18T08:59:00.267Z,9.85
2022-08-18T09:01:55.411Z,10.18
2022-08-18T09:04:54.733Z,10.60
2022-08-18T09:07:58.929Z,9.05
2022-08-18T09:11:26.800Z,9.43
2022-08-18T09:14:21.182Z,8.68
2022-08-18T09:17:54.039Z,9.38
2022-08-18T09:21:05.565Z,8.93
2022-08-18T09:24:06.947Z,8.60
2022-08-18T09:26:49.284Z,9.18
2022-08-18T09:29:52.580Z,9.30
2022-08-18T09:32:19.199Z,8.65
2022-08-18T09:35:13.835Z,9.82
2022-08-18T09:38:39.583Z,9.85
2022-08-18T09:41:32.961Z,9.75
2022-08-18T09:44:17.958Z,9.90
2022-08-18T09:46:48.638Z,10.30
2022-08-18T09:49:27.307Z,9.57
2022-08-18T09:52:24.473Z,8.45
2022-08-18T09:55:57.889Z,10.10
2022-08-18T09:58:29.130Z,10.75
2022-08-18T10:01:30.303Z,11.30
2022-08-18T10:04:15.498Z,10.10
2022-08-18T10:06:51.618Z,10.30
2022-08-18T10:09:49.264Z,9.20
2022-08-18T10:13:21.679Z,9.68
2022-08-18T10:16:22.647Z,9.10
2022-08-18T10:19:39.334Z,9.40
2022-08-18T10:22:10.881Z,10.45
2022-08-18T10:24:51.979Z,9.93
2022-08-18T10:27:46.490Z,10.45
2022-08-18T10:31:06.521Z,9.75
2022-08-18T10:34:16.802Z,9.68
2022-08-18T10:39:45.424Z,9.13
2022-08-18T10:42:40.203Z,9.05
2022-08-18T10:45:24.944Z,8.90
2022-08-18T10:48:05.018Z,9.68
2022-08-18T10:51:21.506Z,9.45
2022-08-18T10:54:54.046Z,9.18
2022-08-18T10:58:00.501Z,9.25
2022-08-18T11:00:56.315Z,9.65
2022-08-18T11:04:33.645Z,9.07
2022-08-18T11:07:18.241Z,10.05
2022-08-18T11:10:04.571Z,9.98
2022-08-18T11:13:03.282Z,11.23
2022-08-18T11:15:55.222Z,10.30
2022-08-18T11:18:43.123Z,9.73
2022-08-18T11:21:44.576Z,9.88
2022-08-18T11:24:31.359Z,9.55
2022-08-18T11:27:09.637Z,9.88
2022-08-18T11:29:46.536Z,10.05
2022-08-18T11:32:35.457Z,9.90
2022-08-18T11:35:21.377Z,10.68
2022-08-18T11:37:57.639Z,10.20
2022-08-18T11:41:11.421Z,11.23
2022-08-18T11:43:41.196Z,10.20
2022-08-18T11:46:32.526Z,10.30
2022-08-18T11:49:24.455Z,10.13
2022-08-18T11:54:50.712Z,10.85
2022-08-18T11:57:40.912Z,11.05
2022-08-18T12:00:45.712Z,9.55
2022-08-18T12:03:40.977Z,10.25
2022-08-18T12:06:27.010Z,10.30
2022-08-18T12:12:33.413Z,10.85
2022-08-18T12:15:22.719Z,10.57
2022-08-18T12:17:52.847Z,11.05
2022-08-18T12:20:22.599Z,10.80
2022-08-18T12:22:50.828Z,10.98
2022-08-18T12:25:25.402Z,10.63
2022-08-18T12:27:54.398Z,10.25
2022-08-18T12:30:21.304Z,12.18
2022-08-18T12:32:50.737Z,13.75
2022-08-18T12:35:35.090Z,15.02
2022-08-18T12:40:49.131Z,14.68
2022-08-18T12:43:16.038Z,15.43
2022-08-18T12:45:43.247Z,16.30
2022-08-18T12:48:10.458Z,17.05
2022-08-18T12:50:50.167Z,16.60
2022-08-18T12:56:30.528Z,17.30
2022-08-18T12:59:05.455Z,18.13
2022-08-18T13:01:39.804Z,18.30
2022-08-18T13:04:12.967Z,17.92
2022-08-18T13:06:59.463Z,19.40
2022-08-18T13:09:42.939Z,19.73
2022-08-18T13:12:20.750Z,21.33
2022-08-18T13:14:50.993Z,19.73
2022-08-18T13:17:32.393Z,19.48
2022-08-18T13:20:09.982Z,17.73
2022-08-18T13:22:41.650Z,19.80
2022-08-18T13:25:32.761Z,19.70
2022-08-18T13:28:03.052Z,20.33
2022-08-18T13:30:32.744Z,20.55
2022-08-18T13:33:06.046Z,20.88
2022-08-18T13:35:54.834Z,21.23
2022-08-18T13:38:27.313Z,19.75
2022-08-18T13:41:00.679Z,20.83
2022-08-18T13:43:39.664Z,19.93
2022-08-18T13:46:15.555Z,20.17
2022-08-18T13:48:44.529Z,18.98
2022-08-18T13:51:24.014Z,18.92
2022-08-18T13:54:06.620Z,17.50
2022-08-18T13:56:39.834Z,16.52
2022-08-18T13:59:07.264Z,18.40
2022-08-18T14:01:44.690Z,16.65
2022-08-18T14:04:22.738Z,17.20
2022-08-18T14:06:57.895Z,18.77
2022-08-18T14:09:36.954Z,16.83
2022-08-18T14:12:23.308Z,16.33
2022-08-18T14:14:56.933Z,17.45
2022-08-18T14:17:26.513Z,19.17
2022-08-18T14:20:14.864Z,15.77
2022-08-18T14:23:10.536Z,16.42
2022-08-18T14:25:57.114Z,14.40
2022-08-18T14:28:28.338Z,13.93
2022-08-18T14:30:58.570Z,14.15
2022-08-18T14:33:50.902Z,13.95
2022-08-18T14:36:19.133Z,14.93
2022-08-18T14:38:46.250Z,14.23
2022-08-18T14:41:19.532Z,14.98
2022-08-18T14:44:10.332Z,13.98
2022-08-18T14:46:34.730Z,14.93
2022-08-18T14:49:04.036Z,13.48
2022-08-18T14:51:33.582Z,13.73
2022-08-18T14:54:02.415Z,14.57
2022-08-18T14:56:29.721Z,14.68
2022-08-18T14:59:00.502Z,14.38
2022-08-18T15:01:27.617Z,15.05
2022-08-18T15:04:18.630Z,14.43
2022-08-18T15:06:45.969Z,15.38
2022-08-18T15:09:27.152Z,14.55
2022-08-18T15:11:58.431Z,15.40
2022-08-18T15:14:33.530Z,14.00
2022-08-18T15:17:13.281Z,14.23
2022-08-18T15:20:00.422Z,13.63
2022-08-18T15:22:47.847Z,13.73
2022-08-18T15:25:34.202Z,15.77
2022-08-18T15:28:03.658Z,14.27
2022-08-18T15:30:30.409Z,14.50
2022-08-18T15:32:58.943Z,13.30
2022-08-18T15:35:26.029Z,13.70
2022-08-18T15:37:54.695Z,12.95
2022-08-18T15:40:30.508Z,14.43
2022-08-18T15:43:09.606Z,13.45
2022-08-18T15:45:56.097Z,14.93
2022-08-18T15:48:28.400Z,15.48
2022-08-18T15:50:55.828Z,14.85
2022-08-18T15:53:30.033Z,17.33
2022-08-18T15:56:04.437Z,15.63
2022-08-18T15:58:31.461Z,14.80
2022-08-18T16:01:00.525Z,13.98
2022-08-18T16:03:27.389Z,13.55
2022-08-18T16:05:55.801Z,13.82
2022-08-18T16:08:25.856Z,13.95
2022-08-18T16:10:54.540Z,13.38
2022-08-18T16:13:24.517Z,14.70
2022-08-18T16:15:51.221Z,14.18
2022-08-18T16:18:21.121Z,13.93
2022-08-18T16:20:52.637Z,14.00
2022-08-18T16:23:19.863Z,13.00
2022-08-18T16:25:46.557Z,12.38
2022-08-18T16:28:13.373Z,12.70
2022-08-18T16:30:43.546Z,11.65
2022-08-18T16:33:10.343Z,13.57
2022-08-18T16:35:37.771Z,12.02
2022-08-18T16:38:09.500Z,12.32
2022-08-18T16:40:37.762Z,13.02
2022-08-18T16:43:05.947Z,14.27
2022-08-18T16:45:36.585Z,14.23
2022-08-18T16:48:04.122Z,14.07
2022-08-18T16:50:30.848Z,15.10
2022-08-18T16:52:58.225Z,14.65
2022-08-18T16:55:25.154Z,15.25
2022-08-18T16:58:14.903Z,14.82
2022-08-18T17:01:01.752Z,16.35
2022-08-18T17:03:47.617Z,15.65
2022-08-18T17:06:19.364Z,15.43
2022-08-18T17:08:46.970Z,16.08
2022-08-18T17:11:19.641Z,17.05
2022-08-18T17:13:50.523Z,16.10
2022-08-18T17:16:21.237Z,17.42
2022-08-18T17:18:49.032Z,17.30
2022-08-18T17:21:23.119Z,18.10
2022-08-18T17:23:51.850Z,18.05
2022-08-18T17:27:26.409Z,17.58
2022-08-18T17:30:20.110Z,17.98
2022-08-18T17:33:10.306Z,18.27
2022-08-18T17:35:47.948Z,17.13
2022-08-18T17:38:40.303Z,17.85
2022-08-18T17:41:07.234Z,18.55
2022-08-18T17:46:38.179Z,21.02
2022-08-18T17:50:26.754Z,20.25
2022-08-18T17:52:58.097Z,20.58
2022-08-18T17:55:40.970Z,20.30
2022-08-18T17:58:40.536Z,18.48
2022-08-18T18:01:12.434Z,19.08
2022-08-18T18:03:40.987Z,19.10
2022-08-18T18:06:38.510Z,19.52
2022-08-18T18:09:12.579Z,18.35
2022-08-18T18:11:47.069Z,19.38
2022-08-18T18:14:39.438Z,19.85
2022-08-18T18:17:17.478Z,20.85
2022-08-18T18:19:50.610Z,19.83
2022-08-18T18:22:28.732Z,19.42
2022-08-18T18:25:07.771Z,19.42
2022-08-18T18:27:43.615Z,19.25
2022-08-18T18:30:27.560Z,20.10
2022-08-18T18:33:16.593Z,21.98
2022-08-18T18:35:56.947Z,20.80
2022-08-18T18:38:35.434Z,21.30
2022-08-18T18:41:14.202Z,21.92
2022-08-18T18:43:50.103Z,22.65
2022-08-18T18:46:18.960Z,23.42
2022-08-18T18:49:23.042Z,21.63
2022-08-18T18:52:36.913Z,23.15
2022-08-18T18:55:15.977Z,23.73
2022-08-18T18:58:07.012Z,24.08
2022-08-18T19:00:54.088Z,22.85
2022-08-18T19:03:46.779Z,22.23
2022-08-18T19:06:39.682Z,24.70
2022-08-18T19:09:29.652Z,25.42
2022-08-18T19:12:51.743Z,25.10
2022-08-18T19:15:21.755Z,23.23
2022-08-18T19:18:16.822Z,24.23
2022-08-18T19:22:02.096Z,24.50
2022-08-18T19:23:59.463Z,23.67
2022-08-18T19:26:39.276Z,24.48
2022-08-18T19:29:22.148Z,24.13
2022-08-18T19:32:16.573Z,22.90
2022-08-18T19:34:55.780Z,24.10
2022-08-18T19:38:20.765Z,23.50
2022-08-18T19:42:00.503Z,24.33
2022-08-18T19:45:15.971Z,23.88
2022-08-18T19:48:16.379Z,25.60
2022-08-18T19:51:08.421Z,24.27
2022-08-18T19:54:42.018Z,24.30
2022-08-18T19:57:53.936Z,24.85
2022-08-18T20:00:57.462Z,24.90
2022-08-18T20:03:58.816Z,24.48
2022-08-18T20:07:25.032Z,24.55
2022-08-18T20:10:30.145Z,26.85
2022-08-18T20:13:27.647Z,25.40
2022-08-18T20:16:05.463Z,25.50
2022-08-18T20:18:45.637Z,25.27
2022-08-18T20:21:20.229Z,25.92
2022-08-18T20:23:55.851Z,26.38
2022-08-18T20:26:38.063Z,26.40
2022-08-18T20:29:12.624Z,25.00
2022-08-18T20:32:02.775Z,26.10
2022-08-18T20:34:35.397Z,25.50
2022-08-18T20:37:25.537Z,24.67
2022-08-18T20:39:55.942Z,25.20
2022-08-18T20:42:22.676Z,27.25
2022-08-18T20:44:58.930Z,27.35
2022-08-18T20:47:59.588Z,28.15
2022-08-18T20:51:00.983Z,27.88
2022-08-18T20:54:25.018Z,27.23
2022-08-18T20:57:02.357Z,27.75
2022-08-18T20:59:48.260Z,27.48
2022-08-18T21:02:51.847Z,26.77
2022-08-18T21:05:41.767Z,26.85
2022-08-18T21:08:16.271Z,26.45
2022-08-18T21:11:32.014Z,25.80
2022-08-18T21:14:04.070Z,22.95
2022-08-18T21:16:42.453Z,23.10
2022-08-18T21:19:29.912Z,24.00
2022-08-18T21:22:03.927Z,23.67
2022-08-18T21:24:49.768Z,25.77
2022-08-18T21:27:37.503Z,25.13
2022-08-18T21:30:23.610Z,25.67
2022-08-18T21:32:51.756Z,25.17
2022-08-18T21:35:35.385Z,24.95
2022-08-18T21:38:12.154Z,26.20
2022-08-18T21:40:48.910Z,24.73
2022-08-18T21:43:49.855Z,26.42
2022-08-18T21:46:30.538Z,25.23
2022-08-18T21:49:04.079Z,25.45
2022-08-18T21:51:48.333Z,26.80
2022-08-18T21:57:27.537Z,22.27
2022-08-18T22:00:39.413Z,24.65
2022-08-18T22:03:27.141Z,24.25
2022-08-18T22:06:20.032Z,25.63
2022-08-18T22:09:20.329Z,24.60
2022-08-18T22:12:14.394Z,25.25
2022-08-18T22:14:54.377Z,25.60
2022-08-18T22:17:55.670Z,23.88
2022-08-18T22:20:40.146Z,23.17
2022-08-18T22:23:34.096Z,24.33
2022-08-18T22:26:17.306Z,23.08
2022-08-18T22:29:13.149Z,25.40
2022-08-18T22:31:50.207Z,24.15
2022-08-18T22:34:27.710Z,24.95
2022-08-18T22:37:03.532Z,23.73
2022-08-18T22:39:51.845Z,23.13
2022-08-18T22:42:25.751Z,24.88
2022-08-18T22:44:54.240Z,26.55
2022-08-18T22:47:21.773Z,25.15
2022-08-18T22:49:48.494Z,25.63
2022-08-18T22:52:42.512Z,24.70
2022-08-18T22:55:22.070Z,24.25
2022-08-18T22:57:55.618Z,25.80
2022-08-18T23:00:25.242Z,26.50
2022-08-18T23:02:53.975Z,25.67
2022-08-18T23:05:21.916Z,26.38
2022-08-18T23:07:48.850Z,25.75
2022-08-18T23:10:16.716Z,25.17
2022-08-18T23:12:47.275Z,26.08
2022-08-18T23:15:18.001Z,24.42
2022-08-18T23:17:44.956Z,26.50
2022-08-18T23:20:19.940Z,26.10
2022-08-18T23:22:48.310Z,26.25
2022-08-18T23:25:15.778Z,26.65
2022-08-18T23:27:42.836Z,25.70
2022-08-18T23:30:13.025Z,25.70
2022-08-18T23:32:39.681Z,26.58
2022-08-18T23:35:07.251Z,24.77
2022-08-18T23:37:33.910Z,27.45
2022-08-18T23:40:00.684Z,25.20
2022-08-18T23:42:27.591Z,24.90
2022-08-18T23:45:03.640Z,26.23
2022-08-18T23:47:30.567Z,25.75
2022-08-18T23:49:57.809Z,25.98
2022-08-18T23:52:24.518Z,26.60
2022-08-18T23:54:51.221Z,25.63
2022-08-18T23:57:17.874Z,27.60
2022-08-18T23:59:44.563Z,25.65
